Time;durP1;ratioP1;P1;durP2;ratioP2;P2;SDS_P1;SDS_P2;PMS_P1;PMS_P2;Temp;Humidity;BMP_temperature;BMP_pressure;BME280_temperature;BME280_humidity;BME280_pressure;Samples;Min_cycle;Max_cycle;Signal;HPM_P1;HPM_P2
2022/08/15 00:00:13;;;;;;;0.00;0.00;;;21.40;99.90;226.50;231333.00;;;;5034406;28;20195;-74
2022/08/15 00:02:57;;;;;;;0.00;0.00;;;21.30;99.90;226.50;231333.00;;;;5034645;28;20584;-73
2022/08/15 00:05:34;;;;;;;0.00;0.00;;;21.30;99.90;226.50;231333.00;;;;5034043;28;20282;-73
2022/08/15 00:08:05;;;;;;;0.00;0.00;;;21.30;99.90;226.50;231333.00;;;;5033855;28;20218;-74
2022/08/15 00:10:56;;;;;;;0.00;0.00;;;21.40;99.90;226.50;231333.00;;;;5034318;28;20253;-74
2022/08/15 00:13:50;;;;;;;0.00;0.00;;;21.40;99.90;226.50;231333.00;;;;5034242;28;20207;-74
2022/08/15 00:16:32;;;;;;;0.00;0.00;;;21.30;99.90;226.50;231333.00;;;;5034050;28;20187;-73
2022/08/15 00:19:02;;;;;;;0.00;0.00;;;21.20;99.90;226.50;231333.00;;;;5033781;28;20585;-73
2022/08/15 00:21:32;;;;;;;0.00;0.00;;;21.20;99.90;226.50;231333.00;;;;5033444;28;20226;-73
2022/08/15 00:24:00;;;;;;;0.00;0.00;;;21.20;99.90;226.50;231333.00;;;;5039473;28;20684;-73
2022/08/15 00:26:28;;;;;;;0.00;0.00;;;21.20;99.90;226.50;231333.00;;;;5051666;28;20728;-72
2022/08/15 00:29:23;;;;;;;0.00;0.00;;;21.30;99.90;226.50;231333.00;;;;5089414;22;20225;-74
2022/08/15 00:32:09;;;;;;;0.00;0.00;;;21.10;99.90;226.50;231333.00;;;;5072989;28;20570;-74
2022/08/15 00:34:56;;;;;;;0.00;0.00;;;21.10;99.90;226.50;231333.00;;;;5060346;28;20255;-74
2022/08/15 00:37:25;;;;;;;0.00;0.00;;;21.00;99.90;226.50;231333.00;;;;5072878;28;20201;-75
2022/08/15 00:39:53;;;;;;;0.00;0.00;;;21.00;99.90;226.50;231333.00;;;;5072813;28;20202;-73
2022/08/15 00:42:24;;;;;;;0.00;0.00;;;21.00;99.90;226.50;231333.00;;;;5073100;28;20245;-75
2022/08/15 00:44:59;;;;;;;0.00;0.00;;;20.90;99.90;226.50;231333.00;;;;5072903;28;20193;-74
2022/08/15 00:47:42;;;;;;;0.00;0.00;;;20.80;99.90;226.50;231333.00;;;;5060723;28;20226;-73
2022/08/15 00:50:15;;;;;;;0.00;0.00;;;20.80;99.90;226.50;231333.00;;;;5053083;28;20226;-73
2022/08/15 00:53:07;;;;;;;0.00;0.00;;;20.70;99.90;226.50;231333.00;;;;5054286;28;20233;-73
2022/08/15 00:55:40;;;;;;;0.00;0.00;;;20.70;99.90;226.50;231333.00;;;;5046754;28;20553;-73
2022/08/15 00:58:10;;;;;;;0.00;0.00;;;20.70;99.90;226.50;231333.00;;;;5047059;28;20222;-73
2022/08/15 01:01:00;;;;;;;0.00;0.00;;;20.60;99.90;226.50;231333.00;;;;5034664;28;20195;-74
2022/08/15 01:03:36;;;;;;;0.00;0.00;;;20.70;99.90;226.50;231333.00;;;;5063276;28;20751;-73
2022/08/15 01:06:23;;;;;;;0.00;0.00;;;20.70;99.90;226.50;231333.00;;;;5062003;28;20543;-74
2022/08/15 01:09:02;;;;;;;0.00;0.00;;;20.70;99.90;226.50;231333.00;;;;5052292;28;20214;-73
2022/08/15 01:11:45;;;;;;;0.00;0.00;;;20.70;99.90;226.50;231333.00;;;;5053636;28;20548;-73
2022/08/15 01:14:13;;;;;;;0.00;0.00;;;20.60;99.90;226.50;231333.00;;;;5063580;28;20189;-74
2022/08/15 01:17:04;;;;;;;0.00;0.00;;;20.60;99.90;226.50;231333.00;;;;5056604;28;20210;-73
2022/08/15 01:19:44;;;;;;;0.00;0.00;;;20.60;99.90;226.50;231333.00;;;;5048303;28;20269;-74
2022/08/15 01:22:42;;;;;;;0.00;0.00;;;20.60;99.90;226.50;231333.00;;;;5040269;28;20224;-73
2022/08/15 01:25:23;;;;;;;0.00;0.00;;;20.60;99.90;226.50;231333.00;;;;5071802;28;20201;-74
2022/08/15 01:28:17;;;;;;;0.00;0.00;;;20.60;99.90;226.50;231333.00;;;;5070055;28;20316;-73
2022/08/15 01:30:52;;;;;;;0.00;0.00;;;20.50;99.90;226.50;231333.00;;;;5052121;28;20277;-72
2022/08/15 01:33:39;;;;;;;0.00;0.00;;;20.60;99.90;226.50;231333.00;;;;5050747;28;20221;-75
2022/08/15 01:36:10;;;;;;;0.00;0.00;;;20.50;99.90;226.50;231333.00;;;;5051728;28;20656;-73
2022/08/15 01:39:09;;;;;;;0.00;0.00;;;20.60;99.90;226.50;231333.00;;;;5051780;28;20218;-73
2022/08/15 01:41:49;;;;;;;0.00;0.00;;;20.60;99.90;226.50;231333.00;;;;5050385;28;20225;-73
2022/08/15 01:44:33;;;;;;;0.00;0.00;;;20.60;99.90;226.50;231333.00;;;;5032652;28;20190;-73
2022/08/15 01:47:25;;;;;;;0.00;0.00;;;20.60;99.90;226.50;231333.00;;;;5065138;28;20197;-73
2022/08/15 01:50:01;;;;;;;0.00;0.00;;;20.60;99.90;226.50;231333.00;;;;5072202;28;20185;-73
2022/08/15 01:52:37;;;;;;;0.00;0.00;;;20.60;99.90;226.50;231333.00;;;;5068715;28;20243;-73
2022/08/15 01:55:37;;;;;;;0.00;0.00;;;20.70;99.90;226.50;231333.00;;;;5071123;28;20276;-73
2022/08/15 01:58:24;;;;;;;0.00;0.00;;;20.80;99.90;226.50;231333.00;;;;5071111;28;20221;-73
2022/08/15 02:01:00;;;;;;;0.00;0.00;;;20.80;99.90;226.50;231333.00;;;;5063014;28;20677;-73
2022/08/15 02:03:34;;;;;;;0.00;0.00;;;20.80;99.90;226.50;231333.00;;;;5036822;28;20248;-73
2022/08/15 02:06:23;;;;;;;0.00;0.00;;;20.80;99.90;226.50;231333.00;;;;5031065;28;20202;-76
2022/08/15 02:09:06;;;;;;;0.00;0.00;;;20.70;99.90;226.50;231333.00;;;;5031914;28;20218;-73
2022/08/15 02:11:57;;;;;;;0.00;0.00;;;20.60;99.90;226.50;231333.00;;;;5052420;28;20182;-74
2022/08/15 02:14:35;;;;;;;0.00;0.00;;;20.60;99.90;226.50;231333.00;;;;5051039;28;20193;-73
2022/08/15 02:17:06;;;;;;;0.00;0.00;;;20.60;99.90;226.50;231333.00;;;;5057472;28;20239;-74
2022/08/15 02:19:42;;;;;;;0.00;0.00;;;20.50;99.90;226.50;231333.00;;;;5047987;28;20260;-73
2022/08/15 02:22:15;;;;;;;0.00;0.00;;;20.30;99.90;226.50;231333.00;;;;5050666;28;20210;-73
2022/08/15 02:24:56;;;;;;;0.00;0.00;;;20.40;99.90;226.50;231333.00;;;;5057865;28;20197;-74
2022/08/15 02:27:28;;;;;;;0.00;0.00;;;20.40;99.90;226.50;231333.00;;;;5059003;28;20193;-75
2022/08/15 02:30:00;;;;;;;0.00;0.00;;;20.30;99.90;226.50;231333.00;;;;5071064;28;20306;-74
2022/08/15 02:32:28;;;;;;;0.00;0.00;;;20.30;99.90;226.50;231333.00;;;;5065696;28;20191;-74
2022/08/15 02:35:00;;;;;;;0.00;0.00;;;20.30;99.90;226.50;231333.00;;;;5051015;28;20226;-74
2022/08/15 02:37:31;;;;;;;0.00;0.00;;;20.20;99.90;226.50;231333.00;;;;5058763;28;20200;-74
2022/08/15 02:40:12;;;;;;;0.00;0.00;;;20.20;99.90;226.50;231333.00;;;;5061729;28;20225;-77
2022/08/15 02:43:03;;;;;;;0.00;0.00;;;20.20;99.90;226.50;231333.00;;;;5059060;28;20225;-74
2022/08/15 02:45:37;;;;;;;0.00;0.00;;;20.20;99.90;226.50;231333.00;;;;5046066;28;20555;-74
2022/08/15 02:48:24;;;;;;;0.00;0.00;;;20.20;99.90;226.50;231333.00;;;;5043599;28;20607;-73
2022/08/15 02:50:56;;;;;;;0.00;0.00;;;20.20;99.90;226.50;231333.00;;;;5047381;28;20194;-73
2022/08/15 02:53:27;;;;;;;0.00;0.00;;;20.30;99.90;226.50;231333.00;;;;5059787;28;20294;-74
2022/08/15 02:55:59;;;;;;;0.00;0.00;;;20.20;99.90;226.50;231333.00;;;;5050413;28;20194;-74
2022/08/15 02:58:27;;;;;;;0.00;0.00;;;20.20;99.90;226.50;231333.00;;;;5049917;28;20214;-74
2022/08/15 03:01:01;;;;;;;0.00;0.00;;;20.20;99.90;226.50;231333.00;;;;5050644;28;20708;-74
2022/08/15 03:03:45;;;;;;;0.00;0.00;;;20.20;99.90;226.50;231333.00;;;;5054637;28;20210;-75
2022/08/15 03:06:17;;;;;;;0.00;0.00;;;20.20;99.90;226.50;231333.00;;;;5045827;28;20202;-74
2022/08/15 03:09:03;;;;;;;0.00;0.00;;;20.20;99.90;226.50;231333.00;;;;5075298;28;20217;-75
2022/08/15 03:11:36;;;;;;;0.00;0.00;;;20.30;99.90;226.50;231333.00;;;;5063293;28;20202;-74
2022/08/15 03:14:24;;;;;;;0.00;0.00;;;20.30;99.90;226.50;231333.00;;;;5077865;28;20198;-74
2022/08/15 03:17:04;;;;;;;0.00;0.00;;;20.20;99.90;226.50;231333.00;;;;5073922;28;20613;-73
2022/08/15 03:19:38;;;;;;;0.00;0.00;;;20.20;99.90;226.50;231333.00;;;;5043970;28;20214;-73
2022/08/15 03:22:13;;;;;;;0.00;0.00;;;20.30;99.90;226.50;231333.00;;;;5036959;28;20190;-74
2022/08/15 03:25:01;;;;;;;0.00;0.00;;;20.20;99.90;226.50;231333.00;;;;5056793;28;20205;-74
2022/08/15 03:27:30;;;;;;;0.00;0.00;;;20.20;99.90;226.50;231333.00;;;;5066933;28;20209;-75
2022/08/15 03:30:05;;;;;;;0.00;0.00;;;20.20;99.90;226.50;231333.00;;;;5076781;28;20208;-76
2022/08/15 03:32:44;;;;;;;0.00;0.00;;;20.20;99.90;226.50;231333.00;;;;5069720;28;20209;-73
2022/08/15 03:35:13;;;;;;;0.00;0.00;;;20.30;99.90;226.50;231333.00;;;;5069252;28;20615;-73
2022/08/15 03:37:42;;;;;;;0.00;0.00;;;20.30;99.90;226.50;231333.00;;;;5069147;28;20502;-73
2022/08/15 03:40:30;;;;;;;0.00;0.00;;;20.30;99.90;226.50;231333.00;;;;5049617;28;20285;-75
2022/08/15 03:43:03;;;;;;;0.00;0.00;;;20.10;99.90;226.50;231333.00;;;;5049642;28;20478;-73
2022/08/15 03:45:45;;;;;;;0.00;0.00;;;20.00;99.90;226.50;231333.00;;;;5049598;28;20293;-73
2022/08/15 03:48:19;;;;;;;0.00;0.00;;;20.10;99.90;226.50;231333.00;;;;5049084;28;20237;-77
2022/08/15 03:50:50;;;;;;;0.00;0.00;;;20.00;99.90;226.50;231333.00;;;;5066319;28;20272;-73
2022/08/15 03:53:30;;;;;;;0.00;0.00;;;20.00;99.90;226.50;231333.00;;;;5057164;28;20190;-73
2022/08/15 03:56:00;;;;;;;0.00;0.00;;;20.10;99.90;226.50;231333.00;;;;5049073;28;20233;-74
2022/08/15 03:58:34;;;;;;;0.00;0.00;;;20.10;99.90;226.50;231333.00;;;;5046733;28;20692;-76
2022/08/15 04:01:13;;;;;;;0.00;0.00;;;20.10;99.90;226.50;231333.00;;;;5049571;28;20281;-75
2022/08/15 04:03:47;;;;;;;0.00;0.00;;;19.90;99.90;226.50;231333.00;;;;5045812;28;20228;-76
2022/08/15 04:06:24;;;;;;;0.00;0.00;;;19.90;99.90;226.50;231333.00;;;;5046174;28;20203;-76
2022/08/15 04:08:55;;;;;;;0.00;0.00;;;20.00;99.90;226.50;231333.00;;;;5055897;28;20222;-77
2022/08/15 04:11:45;;;;;;;0.00;0.00;;;19.90;99.90;226.50;231333.00;;;;5052073;28;20207;-77
2022/08/15 04:14:21;;;;;;;0.00;0.00;;;19.90;99.90;226.50;231333.00;;;;5057165;28;20690;-77
2022/08/15 04:17:06;;;;;;;0.00;0.00;;;19.90;99.90;226.50;231333.00;;;;5069220;28;20198;-77
2022/08/15 04:19:50;;;;;;;0.00;0.00;;;20.10;99.90;226.50;231333.00;;;;5032940;28;20289;-77
2022/08/15 04:22:39;;;;;;;0.00;0.00;;;20.10;99.90;226.50;231333.00;;;;5066288;28;20206;-77
2022/08/15 04:25:29;;;;;;;0.00;0.00;;;20.10;99.90;226.50;231333.00;;;;5032551;28;20199;-77
2022/08/15 04:28:14;;;;;;;0.00;0.00;;;20.00;99.90;226.50;231333.00;;;;5052002;28;20221;-76
2022/08/15 04:31:08;;;;;;;0.00;0.00;;;20.00;99.90;226.50;231333.00;;;;5043672;28;20225;-76
2022/08/15 04:33:41;;;;;;;0.00;0.00;;;20.00;99.90;226.50;231333.00;;;;5052532;28;20198;-76
2022/08/15 04:36:32;;;;;;;0.00;0.00;;;20.10;99.90;226.50;231333.00;;;;5051543;28;20541;-76
2022/08/15 04:39:03;;;;;;;0.00;0.00;;;20.00;99.90;226.50;231333.00;;;;5060217;28;20324;-77
2022/08/15 04:41:40;;;;;;;0.00;0.00;;;20.00;99.90;226.50;231333.00;;;;5070608;28;20225;-77
2022/08/15 04:44:19;;;;;;;0.00;0.00;;;20.00;99.90;226.50;231333.00;;;;5076520;28;20217;-77
2022/08/15 04:46:56;;;;;;;0.00;0.00;;;20.00;99.90;226.50;231333.00;;;;5061010;28;20193;-76
2022/08/15 04:49:25;;;;;;;0.00;0.00;;;20.00;99.90;226.50;231333.00;;;;5075162;28;20217;-76
2022/08/15 04:51:55;;;;;;;0.00;0.00;;;20.00;99.90;226.50;231333.00;;;;5062094;28;20569;-76
2022/08/15 04:54:25;;;;;;;0.00;0.00;;;20.00;99.90;226.50;231333.00;;;;5074548;28;20203;-76
2022/08/15 04:57:15;;;;;;;0.00;0.00;;;20.00;99.90;226.50;231333.00;;;;5058025;28;20206;-76
2022/08/15 04:59:47;;;;;;;0.00;0.00;;;20.10;99.90;226.50;231333.00;;;;5071768;28;20446;-76
2022/08/15 05:03:01;;;;;;;0.00;0.00;;;20.10;99.90;226.50;231333.00;;;;5069621;28;20328;-76
2022/08/15 05:05:35;;;;;;;0.00;0.00;;;20.10;99.90;226.50;231333.00;;;;5048789;28;20226;-76
2022/08/15 05:08:08;;;;;;;0.00;0.00;;;20.20;99.90;226.50;231333.00;;;;5051822;28;20597;-76
2022/08/15 05:10:54;;;;;;;0.00;0.00;;;20.30;99.90;226.50;231333.00;;;;5050619;28;20580;-76
2022/08/15 05:13:26;;;;;;;0.00;0.00;;;20.30;99.90;226.50;231333.00;;;;5055093;28;20198;-76
2022/08/15 05:15:57;;;;;;;0.00;0.00;;;20.30;99.90;226.50;231333.00;;;;5054534;28;20292;-76
2022/08/15 05:18:30;;;;;;;0.00;0.00;;;20.40;99.90;226.50;231333.00;;;;5054339;28;20216;-76
2022/08/15 05:20:59;;;;;;;0.00;0.00;;;20.40;99.90;226.50;231333.00;;;;5071614;28;20197;-76
2022/08/15 05:23:33;;;;;;;0.00;0.00;;;20.50;99.90;226.50;231333.00;;;;5071318;28;20190;-76
2022/08/15 05:26:22;;;;;;;0.00;0.00;;;20.60;99.90;226.50;231333.00;;;;5054537;28;20201;-77
2022/08/15 05:29:10;;;;;;;0.00;0.00;;;20.60;99.90;226.50;231333.00;;;;5072127;28;20291;-76
2022/08/15 05:31:38;;;;;;;0.00;0.00;;;20.60;99.90;226.50;231333.00;;;;5070800;28;20230;-76
2022/08/15 05:34:11;;;;;;;0.00;0.00;;;20.60;99.90;226.50;231333.00;;;;5047561;28;20202;-77
2022/08/15 05:36:52;;;;;;;0.00;0.00;;;20.70;99.90;226.50;231333.00;;;;5051542;28;20727;-76
2022/08/15 05:39:28;;;;;;;0.00;0.00;;;20.80;99.90;226.50;231333.00;;;;5075328;28;20213;-77
2022/08/15 05:42:21;;;;;;;0.00;0.00;;;20.80;99.90;226.50;231333.00;;;;5051284;28;20217;-77
2022/08/15 05:45:12;;;;;;;0.00;0.00;;;20.80;99.90;226.50;231333.00;;;;5034783;28;20680;-77
2022/08/15 05:48:14;;;;;;;0.00;0.00;;;20.90;99.90;226.50;231333.00;;;;5050655;28;20216;-77
2022/08/15 05:50:54;;;;;;;0.00;0.00;;;21.00;99.90;226.50;231333.00;;;;5051210;28;20199;-77
2022/08/15 05:53:36;;;;;;;0.00;0.00;;;21.00;99.90;226.50;231333.00;;;;5051131;28;20289;-76
2022/08/15 05:56:21;;;;;;;0.00;0.00;;;21.10;99.90;226.50;231333.00;;;;5035020;28;20194;-76
2022/08/15 05:58:58;;;;;;;0.00;0.00;;;21.20;99.90;226.50;231333.00;;;;5050634;28;20273;-77
2022/08/15 06:01:34;;;;;;;0.00;0.00;;;21.20;99.90;226.50;231333.00;;;;5050374;28;20568;-77
2022/08/15 06:04:21;;;;;;;0.00;0.00;;;21.20;99.90;226.50;231333.00;;;;5050998;28;20588;-77
2022/08/15 06:07:07;;;;;;;0.00;0.00;;;21.30;99.90;226.50;231333.00;;;;5055523;28;20202;-77
2022/08/15 06:09:43;;;;;;;0.00;0.00;;;21.40;99.90;226.50;231333.00;;;;5034702;28;20284;-77
2022/08/15 06:12:26;;;;;;;0.00;0.00;;;21.40;99.90;226.50;231333.00;;;;5067563;28;20205;-76
2022/08/15 06:15:07;;;;;;;0.00;0.00;;;21.50;99.90;226.50;231333.00;;;;5054316;28;20228;-76
2022/08/15 06:17:48;;;;;;;0.00;0.00;;;21.60;99.90;226.50;231333.00;;;;5070301;28;20229;-77
2022/08/15 06:20:31;;;;;;;0.00;0.00;;;21.60;99.90;226.50;231333.00;;;;5053983;28;20198;-77
2022/08/15 06:23:34;;;;;;;0.00;0.00;;;21.70;99.90;226.50;231333.00;;;;5070504;28;20669;-77
2022/08/15 06:26:27;;;;;;;0.00;0.00;;;21.70;99.90;226.50;231333.00;;;;5053925;28;20245;-77
2022/08/15 06:29:53;;;;;;;0.00;0.00;;;21.80;99.90;226.50;231333.00;;;;5098197;22;20233;-74
2022/08/15 06:32:36;;;;;;;0.00;0.00;;;21.90;99.90;226.50;231333.00;;;;5078983;28;20440;-74
2022/08/15 06:35:16;;;;;;;0.00;0.00;;;22.00;99.90;226.50;231333.00;;;;5075924;28;20189;-74
2022/08/15 06:38:02;;;;;;;0.00;0.00;;;22.10;99.90;226.50;231333.00;;;;5074355;28;20288;-73
2022/08/15 06:40:56;;;;;;;0.00;0.00;;;22.10;99.90;226.50;231333.00;;;;5073218;28;20194;-74
2022/08/15 06:43:25;;;;;;;0.00;0.00;;;22.20;99.90;226.50;231333.00;;;;5073538;28;20189;-74
2022/08/15 06:46:09;;;;;;;0.00;0.00;;;22.30;99.90;226.50;231333.00;;;;5074013;28;20244;-74
2022/08/15 06:49:03;;;;;;;0.00;0.00;;;22.40;99.90;226.50;231333.00;;;;5090963;28;20232;-75
2022/08/15 06:51:39;;;;;;;0.00;0.00;;;22.50;99.90;226.50;231333.00;;;;5074417;28;20204;-74
2022/08/15 06:54:20;;;;;;;0.00;0.00;;;22.50;99.90;226.50;231333.00;;;;5079072;28;20714;-74
2022/08/15 06:57:15;;;;;;;0.00;0.00;;;22.60;99.90;226.50;231333.00;;;;5078529;28;20205;-73
2022/08/15 07:00:04;;;;;;;0.00;0.00;;;22.70;99.90;226.50;231333.00;;;;5078161;28;20222;-73
2022/08/15 07:03:15;;;;;;;0.00;0.00;;;22.80;99.90;226.50;231333.00;;;;5079362;28;20192;-73
2022/08/15 07:05:51;;;;;;;0.00;0.00;;;22.90;99.90;226.50;231333.00;;;;5069460;28;20218;-73
2022/08/15 07:08:33;;;;;;;0.00;0.00;;;23.00;99.90;226.50;231333.00;;;;5050667;28;20249;-73
2022/08/15 07:11:22;;;;;;;0.00;0.00;;;23.00;99.90;226.50;231333.00;;;;5068158;28;20204;-74
2022/08/15 07:14:17;;;;;;;0.00;0.00;;;23.10;99.90;226.50;231333.00;;;;5069376;28;20213;-74
2022/08/15 07:17:02;;;;;;;0.00;0.00;;;23.10;99.90;226.50;231333.00;;;;5052441;28;20194;-74
2022/08/15 07:19:34;;;;;;;0.00;0.00;;;23.20;99.90;226.50;231333.00;;;;5069569;28;20696;-73
2022/08/15 07:22:20;;;;;;;0.00;0.00;;;23.30;99.90;226.50;231333.00;;;;5054405;28;20698;-73
2022/08/15 07:25:11;;;;;;;0.00;0.00;;;23.40;99.90;226.50;231333.00;;;;5052928;28;20222;-73
2022/08/15 07:27:57;;;;;;;0.00;0.00;;;23.50;99.90;226.50;231333.00;;;;5068832;28;20583;-73
2022/08/15 07:30:45;;;;;;;0.00;0.00;;;23.60;99.90;226.50;231333.00;;;;5069313;28;20688;-73
2022/08/15 07:33:41;;;;;;;0.00;0.00;;;23.60;99.90;226.50;231333.00;;;;5051384;28;20201;-73
2022/08/15 07:36:23;;;;;;;0.00;0.00;;;23.70;99.90;226.50;231333.00;;;;5052263;28;20206;-73
2022/08/15 07:39:25;;;;;;;0.00;0.00;;;23.90;99.90;226.50;231333.00;;;;5052289;28;20309;-73
2022/08/15 07:42:15;;;;;;;0.00;0.00;;;24.30;99.90;226.50;231333.00;;;;5057085;28;20539;-73
2022/08/15 07:45:11;;;;;;;0.00;0.00;;;24.50;99.90;226.50;231333.00;;;;5058464;28;20684;-73
2022/08/15 07:47:55;;;;;;;0.00;0.00;;;24.50;99.90;226.50;231333.00;;;;5062564;28;20224;-72
2022/08/15 07:50:34;;;;;;;0.00;0.00;;;24.60;99.90;226.50;231333.00;;;;5060523;28;20233;-72
2022/08/15 07:53:16;;;;;;;0.00;0.00;;;24.80;99.90;226.50;231333.00;;;;5069832;28;20202;-73
2022/08/15 07:56:07;;;;;;;0.00;0.00;;;25.00;99.90;226.50;231333.00;;;;5078305;28;20205;-72
2022/08/15 07:59:13;;;;;;;0.00;0.00;;;25.00;99.90;226.50;231333.00;;;;5062459;28;20217;-72
2022/08/15 08:02:11;;;;;;;0.00;0.00;;;25.10;99.90;226.50;231333.00;;;;5065194;28;20668;-72
2022/08/15 08:05:01;;;;;;;0.00;0.00;;;25.20;99.90;226.50;231333.00;;;;5063712;28;20699;-72
2022/08/15 08:07:37;;;;;;;0.00;0.00;;;25.20;99.90;226.50;231333.00;;;;5058037;28;20270;-72
2022/08/15 08:10:25;;;;;;;0.00;0.00;;;25.30;99.90;226.50;231333.00;;;;5077024;28;20654;-73
2022/08/15 08:13:18;;;;;;;0.00;0.00;;;25.40;99.90;226.50;231333.00;;;;5057249;28;20285;-73
2022/08/15 08:16:07;;;;;;;0.00;0.00;;;25.50;99.90;226.50;231333.00;;;;5058977;28;20669;-73
2022/08/15 08:18:50;;;;;;;0.00;0.00;;;25.60;99.90;226.50;231333.00;;;;5073694;28;20388;-73
2022/08/15 08:21:29;;;;;;;0.00;0.00;;;25.80;99.90;226.50;231333.00;;;;5064506;28;20267;-73
2022/08/15 08:24:11;;;;;;;0.00;0.00;;;26.00;99.90;226.50;231333.00;;;;5073902;28;20199;-73
2022/08/15 08:27:06;;;;;;;0.00;0.00;;;26.10;99.90;226.50;231333.00;;;;5055764;28;20262;-73
2022/08/15 08:29:56;;;;;;;0.00;0.00;;;26.20;99.90;226.50;231333.00;;;;5070044;28;20295;-73
2022/08/15 08:32:38;;;;;;;0.00;0.00;;;26.30;99.90;226.50;231333.00;;;;5076127;28;20208;-73
2022/08/15 08:35:37;;;;;;;0.00;0.00;;;26.50;99.90;226.50;231333.00;;;;5077599;28;20202;-73
2022/08/15 08:38:28;;;;;;;0.00;0.00;;;26.60;99.90;226.50;231333.00;;;;5077524;28;20205;-73
2022/08/15 08:41:36;;;;;;;0.00;0.00;;;26.60;99.90;226.50;231333.00;;;;5077045;28;20606;-73
2022/08/15 08:44:29;;;;;;;0.00;0.00;;;26.60;99.90;226.50;231333.00;;;;5077158;28;20539;-73
2022/08/15 08:47:19;;;;;;;0.00;0.00;;;26.80;99.90;226.50;231333.00;;;;5076732;28;20292;-73
2022/08/15 08:50:11;;;;;;;0.00;0.00;;;26.90;99.90;226.50;231333.00;;;;5070283;28;20213;-73
2022/08/15 08:53:13;;;;;;;0.00;0.00;;;26.90;99.90;226.50;231333.00;;;;5057871;28;20190;-73
2022/08/15 08:55:50;;;;;;;0.00;0.00;;;27.00;99.90;226.50;231333.00;;;;5057396;28;20244;-73
2022/08/15 08:58:27;;;;;;;0.00;0.00;;;27.00;99.90;226.50;231333.00;;;;5063394;28;20227;-74
2022/08/15 09:01:20;;;;;;;0.00;0.00;;;27.30;99.90;226.50;231333.00;;;;5077609;28;20206;-73
2022/08/15 09:04:02;;;;;;;0.00;0.00;;;27.40;99.90;226.50;231333.00;;;;5061326;28;20218;-73
2022/08/15 09:06:38;;;;;;;0.00;0.00;;;27.50;99.90;27.10;95439.00;;;;5058203;28;20229;-73
2022/08/15 09:09:11;;;;;;;0.00;0.00;;;27.70;99.90;27.20;95413.00;;;;5058610;28;20221;-73
2022/08/15 09:11:49;;;;;;;0.00;0.00;;;27.80;99.90;27.20;95449.00;;;;5059986;28;20252;-74
2022/08/15 09:14:29;;;;;;;0.00;0.00;;;27.80;99.90;27.30;95454.00;;;;5069760;28;20193;-73
2022/08/15 09:17:10;;;;;;;0.00;0.00;;;27.80;99.90;27.30;95379.00;;;;5065246;28;20665;-73
2022/08/15 09:20:08;;;;;;;0.00;0.00;;;28.00;99.90;27.40;95323.00;;;;5054823;28;20222;-73
2022/08/15 09:22:46;;;;;;;0.00;0.00;;;28.00;99.90;27.40;95396.00;;;;5060877;28;20245;-74
2022/08/15 09:25:15;;;;;;;0.00;0.00;;;28.00;99.90;27.60;95422.00;;;;5075258;28;20201;-74
2022/08/15 09:27:53;;;;;;;0.00;0.00;;;28.20;99.90;27.80;95417.00;;;;5075021;28;20213;-74
2022/08/15 09:30:28;;;;;;;0.00;0.00;;;28.40;99.90;28.10;95445.00;;;;5075606;28;20194;-73
2022/08/15 09:33:54;;;;;;;0.00;0.00;;;28.70;99.90;28.20;95400.00;;;;5075474;28;20190;-74
2022/08/15 09:36:59;;;;;;;0.00;0.00;;;28.80;99.90;28.20;95432.00;;;;5076320;28;20186;-74
2022/08/15 09:40:10;;;;;;;0.00;0.00;;;28.80;99.90;28.50;95428.00;;;;5075293;28;20600;-74
2022/08/15 09:43:24;;;;;;;0.00;0.00;;;29.00;99.80;28.40;95416.00;;;;5075226;28;20196;-73
2022/08/15 09:46:51;;;;;;;0.00;0.00;;;28.90;99.40;28.40;95434.00;;;;5074664;28;20711;-74
2022/08/15 09:49:49;;;;;;;0.00;0.00;;;28.90;99.20;28.30;95483.00;;;;5054847;28;20214;-73
2022/08/15 09:52:34;;;;;;;0.00;0.00;;;28.90;99.30;28.10;95438.00;;;;5055656;28;20245;-74
2022/08/15 09:55:19;;;;;;;0.00;0.00;;;28.70;99.10;28.20;95436.00;;;;5056779;28;20191;-74
2022/08/15 09:57:53;;;;;;;0.00;0.00;;;28.80;99.10;28.40;95437.00;;;;5058285;28;20281;-73
2022/08/15 10:00:32;;;;;;;0.00;0.00;;;28.90;99.10;28.50;95441.00;;;;5060888;28;20233;-74
2022/08/15 10:03:18;;;;;;;0.00;0.00;;;29.10;98.80;28.50;95403.00;;;;5059140;28;20274;-74
2022/08/15 10:06:04;;;;;;;0.00;0.00;;;29.10;98.30;28.60;95398.00;;;;5054849;28;20252;-73
2022/08/15 10:09:31;;;;;;;0.00;0.00;;;29.10;97.80;28.90;95415.00;;;;5055847;28;20214;-74
2022/08/15 10:12:23;;;;;;;0.00;0.00;;;29.40;97.40;28.70;95395.00;;;;5056479;28;20209;-74
2022/08/15 10:15:06;;;;;;;0.00;0.00;;;29.20;97.20;28.30;95393.00;;;;5056056;28;20680;-73
2022/08/15 10:17:44;;;;;;;0.00;0.00;;;29.00;97.50;28.30;95405.00;;;;5054400;28;20198;-73
2022/08/15 10:21:17;;;;;;;0.00;0.00;;;28.90;97.60;28.30;95351.00;;;;5055855;28;20190;-73
2022/08/15 10:23:50;;;;;;;0.00;0.00;;;28.90;97.50;28.20;95372.00;;;;5055161;28;20217;-74
2022/08/15 10:26:30;;;;;;;0.00;0.00;;;28.80;97.50;28.10;95378.00;;;;5054386;28;20624;-72
2022/08/15 10:29:22;;;;;;;0.00;0.00;;;28.70;97.60;28.20;95354.00;;;;5054077;28;20557;-72
2022/08/15 10:31:56;;;;;;;0.00;0.00;;;28.70;97.60;28.40;95322.00;;;;5054638;28;20195;-72
2022/08/15 10:34:59;;;;;;;0.00;0.00;;;28.90;97.50;28.90;95336.00;;;;5052236;28;20214;-72
2022/08/15 10:37:34;;;;;;;0.00;0.00;;;29.40;97.00;28.70;95278.00;;;;5054221;28;20277;-73
2022/08/15 10:40:34;;;;;;;0.00;0.00;;;29.40;97.00;28.80;95328.00;;;;5056482;28;20209;-72
2022/08/15 10:43:39;;;;;;;0.00;0.00;;;29.40;96.80;28.80;95343.00;;;;5055455;28;20204;-72
2022/08/15 10:46:50;;;;;;;0.00;0.00;;;29.40;96.80;28.80;95336.00;;;;5073059;28;20206;-73
2022/08/15 10:49:44;;;;;;;0.00;0.00;;;29.40;97.00;29.40;95353.00;;;;5053327;28;20281;-73
2022/08/15 10:52:42;;;;;;;0.00;0.00;;;29.90;96.20;29.70;95360.00;;;;5053153;28;20229;-73
2022/08/15 10:55:28;;;;;;;0.00;0.00;;;30.10;95.50;30.00;95367.00;;;;5069447;28;20581;-73
2022/08/15 10:58:21;;;;;;;0.00;0.00;;;30.50;95.10;30.10;95387.00;;;;5053357;28;20210;-73
2022/08/15 11:01:06;;;;;;;0.00;0.00;;;30.60;94.60;30.00;95377.00;;;;5052837;28;20198;-73
2022/08/15 11:03:44;;;;;;;0.00;0.00;;;30.40;94.60;29.90;95374.00;;;;5052503;28;20202;-73
2022/08/15 11:06:41;;;;;;;0.00;0.00;;;30.30;94.40;29.80;95363.00;;;;5053784;28;20210;-73
2022/08/15 11:09:19;;;;;;;0.00;0.00;;;30.20;94.20;29.70;95368.00;;;;5052063;28;20689;-73
2022/08/15 11:11:53;;;;;;;0.00;0.00;;;30.20;94.10;29.50;95349.00;;;;5052690;28;20205;-73
2022/08/15 11:14:28;;;;;;;0.00;0.00;;;30.00;94.10;29.60;95377.00;;;;5055275;28;20248;-73
2022/08/15 11:17:00;;;;;;;0.00;0.00;;;30.10;94.40;29.50;95368.00;;;;5059835;28;20214;-72
2022/08/15 11:19:38;;;;;;;0.00;0.00;;;30.00;94.40;29.40;95368.00;;;;5063779;28;20770;-73
2022/08/15 11:22:34;;;;;;;0.00;0.00;;;30.00;94.60;29.80;95438.00;;;;5063460;28;20560;-72
2022/08/15 11:25:12;;;;;;;0.00;0.00;;;30.10;94.30;29.80;95417.00;;;;5063141;28;20194;-73
2022/08/15 11:27:40;;;;;;;0.00;0.00;;;30.20;94.10;29.70;95421.00;;;;5062018;28;20217;-72
2022/08/15 11:30:20;;;;;;;0.00;0.00;;;30.20;94.00;29.50;95406.00;;;;5060783;28;20191;-73
2022/08/15 11:32:52;;;;;;;0.00;0.00;;;29.90;94.30;29.30;95433.00;;;;5057787;28;20281;-73
2022/08/15 11:35:32;;;;;;;0.00;0.00;;;29.70;94.40;29.00;95409.00;;;;5070447;28;20737;-73
2022/08/15 11:38:06;;;;;;;0.00;0.00;;;29.50;94.40;28.90;95366.00;;;;5055387;28;20206;-73
2022/08/15 11:40:53;;;;;;;0.00;0.00;;;29.50;94.60;29.00;95396.00;;;;5055032;28;20194;-73
2022/08/15 11:43:24;;;;;;;0.00;0.00;;;29.50;94.40;29.40;95413.00;;;;5055383;28;20228;-73
2022/08/15 11:45:56;;;;;;;0.00;0.00;;;29.80;94.40;29.80;95417.00;;;;5054949;28;20190;-73
2022/08/15 11:48:28;;;;;;;0.00;0.00;;;30.20;93.80;29.70;95334.00;;;;5054762;28;20225;-73
2022/08/15 11:51:10;;;;;;;0.00;0.00;;;30.10;93.90;29.70;95404.00;;;;5054808;28;20278;-73